Decoded Metar for KMML (MARSHALL/RYAN in MN, USA) (IATA:MML) | Meteo·Mobile Aviation Weather
aviador You're here:

KMML Decoded Metar

MARSHALL/RYAN in MN, USA
Report Time2019-01-21 23:56:00
UTC Time2019-01-22 00:02:57
Flight Rules mvfr MVFR
Wind130° at 19 Gusting to 28 kt
W.Decomp.*RWY 12: 18.9 kt HW 1.7 kt RCW
RWY 20: 4.9 kt HW 18.4 kt LCW
W.Rank130° ranks 18
Current wind is above 130° avg. (8.9)
Visibility9656 m
Phenomena:Light Snow
Mist
Clouds:Broken 011 Hf
Expected CloudBase > 800 ft AGL from Temp-Dew spread
Ceiling1,100 ft
Temp-11°C (ISA -24)
Dew Point-13°C (85% RH)
AAT-21.1°C
QNH1014 hPa
Density Alt-1,778 ft
Elevation1,178 ft
Report Wrong Elevation
Raw Report
KMML 212356Z AUTO 13019G28KT 6SM -SN BR BKN011 M11/M13 A2995 RMK
AO2 PK WND 12029/2338 SLP170 P0000 60000 T11111133 11106
21117 56010 FZRANO=

Extra information for KMML:More info

Metar Taf Metar & Taf Last 4 Metars F.Rules Stats Wind Profile Meteogram Temp Stats Airport Information Weather charts Add Link Nearby VenuesMetar ALERT Operation Metar Decoded Social comments

AIRNAV info for KMML